Meridian, MS (39305)

6:18 PM CST on December 02, 2016 (GMT -0600)
Bailey, MS (Cook Road) | | Change Station

Elev 424 ft 32.46 °N, 88.69 °W | Updated 24 seconds ago

Clear
Clear
46.7 °F
Feels Like 47 °F
N
0.0
Wind Variable Wind from North
Gusts 0.0 mph

Today
High -- | Low -- °F
--% Chance of Precip.
Yesterday
High -- | Low -- °F
Precip. -- in
Pressure 30.26 in
Visibility 10.0 miles
Clouds Clear
Windchill 47 °F
Dew Point 39 °F
Humidity 75%
Rainfall 0.00 in
Snow Depth Not available.
6:39 AM 4:49 PM
Waxing Crescent, 11% visible
METAR KMEI 022358Z 31003KT 10SM CLR 10/03 A3026 RMK AO2 SLP247 T01000033 10183 20100 53012
Pressure 30.26 in
Visibility 10.0 miles
Clouds Clear
Windchill 47 °F
Dew Point 39 °F
Humidity 75%
Rainfall 0.00 in
Snow Depth Not available.
6:39 AM 4:49 PM
Waxing Crescent, 11% visible
METAR KMEI 022358Z 31003KT 10SM CLR 10/03 A3026 RMK AO2 SLP247 T01000033 10183 20100 53012

10-Day Weather Forecast

Almanac

Astronomy

Dec. 02, 2016 Rise Set
Actual Time
Civil Twilight
Nautical Twilight
Astronomical Twilight
Moon
Length of Visible Light
Length of Day
Tomorrow will be .
, % of the Moon is Illuminated

Today's Extremes

State Highs State Lows

Community

WunderPhotos

Upload Photos

1,955,379 photos uploaded!

WunderBlog® & News

Nearby

Air Quality

  Air Quality AQ Index Pollutant
Not available.

Snow Depth

Station Depth Elevation

Earthquake Activity

City Distance Mag. Time & Date
Minimum magnitude displayed is 2.5.

Coastal Water Temperatures

Place Temperature

Stations

Nearby Weather Stations

Station Location Temp. Windchill Dew Point Humidity Wind Precip. Elev Updated Type
                   

Watches & Warnings

There are currently no watches in effect.